tecnofanatico.com alexa rank chart, tecnofanatico.com alexa rank daily changes

tecnofanatico.com alexa rank chart, tecnofanatico.com alexa rank daily changes

tecnofanatico.com
Actual rank:
588 995

RANK HISTORY

Date Rank Diff
2017/07/21 588 995 +16 542
2017/07/20 572 453 -22 139
2017/07/19 594 592 +21 672
2017/07/18 572 920 +19 206
2017/07/17 553 714 -9 776
2017/07/16 563 490 +37 263
2017/07/15 526 227 +7 963
2017/07/14 518 264 +54 542
2017/07/13 463 722 +13 620
2017/07/12 450 102 +9 628
2017/07/11 440 474 -1 093
2017/07/10 441 567 -9 597
2017/07/09 451 164 +25 106
2017/07/08 426 058 -11 764
2017/07/07 437 822 +1 677
2017/07/06 436 145 +13 027
2017/07/05 423 118 +799
2017/07/04 422 319 -7 638
2017/07/03 429 957 -4 427
2017/07/02 434 384 +7 898
2017/07/01 426 486 +564
2017/06/30 425 922 +1 579
2017/06/29 424 343 +6 742
2017/06/28 417 601 -2 548
2017/06/27 420 149 -5 725
2017/06/26 425 874 +3 362
2017/06/25 422 512 -634
2017/06/24 423 146 -663
2017/06/23 423 809 -9 582
2017/06/22 433 391 +2 861
2017/06/21 430 530 +6 600
2017/06/20 423 930 -5 119
2017/06/19 429 049 +2 668
2017/06/18 426 381 -10 130
2017/06/17 436 511 +10 107
2017/06/16 426 404 -25 937
2017/06/15 452 341 +937
2017/06/14 451 404 -52 124
2017/06/13 503 528 +5 261
2017/06/12 498 267 +25 227
2017/06/11 473 040 +27 304
2017/06/10 445 736 -2 864
2017/06/09 448 600 -32 524
2017/06/08 481 124 +12 371
2017/06/07 468 753 +11 396
2017/06/06 457 357 +18 686
2017/06/05 438 671 +9 956
2017/06/04 428 715 +9 582
2017/06/03 419 133 -9 052
2017/06/02 428 185 -7 410
2017/06/01 435 595 +2 336
2017/05/31 433 259 +2 617
2017/05/30 430 642 +2 378
2017/05/29 428 264 +683
2017/05/28 427 581 +14 356
2017/05/27 413 225 -454
2017/05/26 413 679 -1 776
2017/05/25 415 455 +2 362
2017/05/24 413 093 +5 846
2017/05/23 407 247 +9 669
2017/05/22 397 578

WIDGET FOR YOUR SITE

DOMAINS WITH THE NEAREST RANK

Domain Rank
raysofdawn-provident.com 588 990
shanghaik11.com 588 991
krea.kr 588 992
e1s.it 588 993
sorpresasparatupareja.com 588 994
tecnofanatico.com 588 995
car-radar.ru 588 996
tradewithtvs.com 588 997
eom.com.ua 588 998
dietaja.uol.com.br 588 999
cinecitta.com 589 000

DOMAINS WITH THE NEAREST RANK BY TLD .com

Domain Rank
hawaiicarrentaldiscount.com 588 986
templarscrusade.com 588 989
raysofdawn-provident.com 588 990
shanghaik11.com 588 991
sorpresasparatupareja.com 588 994
tecnofanatico.com 588 995
tradewithtvs.com 588 997
cinecitta.com 589 000
adv-adserver.com 589 002
itbunyad.com 589 006
786forexbrokers.com 589 012